Terminal Aerodrome Forecast
Issued by NWS Detroit/Pontiac, MI

Home | Current Version | Previous Version | Text Only | Print | Product List | Glossary On
Versions: 1 2 3 4 5 6 7 8 9 10 11 12 13 14 15 16 17 18 19 20 21 22 23 24 25 26
000
FTUS43 KDTX 310520
TAFDTW
TAF
KDTW 310520Z 3106/0112 20005KT P6SM OVC050
     FM311200 23005KT 4SM -SHRA BR OVC025
     FM311500 28007KT 4SM BR OVC015
     FM311700 32015KT 2SM SHRA BR OVC008
     FM312000 36020G30KT 4SM SHRA OVC008
     FM010100 36015G25KT 4SM -SHRASN OVC015
     FM010700 33010G20KT P6SM OVC025=

USA.gov is the U.S. government's official web portal to all federal, state and local government web resources and services.